Flight Track Log - Related Links

Times and Time Zones

All times are in EDT time to prevent confusion due to time zone crossing. See the QFA796 flight status page for this flight to view local times or setup timezone preferences in your user account.

Time Position Orientation Groundspeed Altitude Reporting Facility
EDT Latitude Longitude Course Direction KTS MPH feet Rate Location/Type
Tue 07:04:16 PM -37.6600 144.8356 354° North 143 165 1,100  Level Aus ATC (RADAR)
Tue 07:04:17 PM -37.6610 144.8360 354° North 148 170 600 968 Descending FlightAware ADS-B
Tue 07:04:47 PM -37.6410 144.8330 353° North 159 183 1,600 1,527 Climbing FlightAware ADS-B
Tue 07:05:12 PM -37.6200 144.8290 351° North 207 238 2,000 1,855 Climbing FlightAware ADS-B
Tue 07:05:42 PM -37.5870 144.8230 352° North 228 262 3,300 2,200 Climbing FlightAware ADS-B
Tue 07:06:12 PM -37.5590 144.8130 344° North 257 296 4,200 1,418 Climbing FlightAware ADS-B
Tue 07:06:37 PM -37.5310 144.7830 320° Northwest 300 345 4,600 1,132 Climbing FlightAware ADS-B
Tue 07:07:05 PM -37.4970 144.7455 320° Northwest 304 350 5,200 400 Climbing Aus ATC (RADAR)
Tue 07:07:07 PM -37.4990 144.7480 320° Northwest 313 360 4,800 706 Descending FlightAware ADS-B
Tue 07:07:22 PM -37.4830 144.7300 318° Northwest 314 361 5,400 2,850 Climbing FlightAware ADS-B
Tue 07:07:47 PM -37.4570 144.7020 319° Northwest 315 362 6,700 3,055 Climbing FlightAware ADS-B
Tue 07:08:17 PM -37.4210 144.6610 318° Northwest 325 374 8,200 2,836 Climbing FlightAware ADS-B
Tue 07:08:42 PM -37.3920 144.6290 319° Northwest 336 387 9,300 3,310 Climbing FlightAware ADS-B
Tue 07:09:15 PM -37.3496 144.5820 319° Northwest 339 390 11,400 2,800 Climbing Aus ATC (RADAR)
Tue 07:09:27 PM -37.3390 144.5700 319° Northwest 349 402 11,400 2,571 Level FlightAware ADS-B
Tue 07:09:50 PM -37.3072 144.5345 319° Northwest 345 397 12,900 2,550 Climbing Aus ATC (RADAR)
Tue 07:10:07 PM -37.2910 144.5160 319° Northwest 359 413 13,100 2,400 Climbing FlightAware ADS-B
Tue 07:10:40 PM -37.2440 144.4651 319° Northwest 357 411 14,900 2,400 Climbing Aus ATC (RADAR)
Tue 07:10:52 PM -37.2330 144.4530 319° Northwest 374 430 14,900 2,400 Level FlightAware ADS-B
Tue 07:11:15 PM -37.1979 144.4143 319° Northwest 370 426 16,300 2,400 Climbing Aus ATC (RADAR)
Tue 07:11:32 PM -37.1790 144.3940 319° Northwest 384 442 16,500 2,400 Climbing FlightAware ADS-B
Tue 07:12:00 PM -37.1373 144.3478 319° Northwest 381 438 18,100 2,250 Climbing Aus ATC (RADAR)
Tue 07:12:12 PM -37.1250 144.3350 319° Northwest 395 455 18,000 2,200 Descending FlightAware ADS-B
Tue 07:12:30 PM -37.0959 144.3023 319° Northwest 389 448 19,200 2,267 Climbing Aus ATC (RADAR)
Tue 07:12:57 PM -37.0620 144.2650 319° Northwest 405 466 19,700 1,522 Climbing FlightAware ADS-B
Tue 07:13:37 PM -37.0070 144.2050 319° Northwest 415 478 20,900 2,219 Climbing FlightAware ADS-B
Tue 07:14:10 PM -36.9524 144.1452 319° Northwest 414 476 22,400 1,950 Climbing Aus ATC (RADAR)
Tue 07:14:17 PM -36.9480 144.1400 319° Northwest 425 489 22,200 2,160 Descending FlightAware ADS-B
Tue 07:14:35 PM -36.9153 144.1050 319° Northwest 417 480 23,300 2,100 Climbing Aus ATC (RADAR)
Tue 07:14:57 PM -36.8870 144.0740 319° Northwest 428 493 23,600 1,950 Climbing FlightAware ADS-B
Tue 07:15:15 PM -36.8560 144.0400 319° Northwest 422 486 24,600 1,600 Climbing Aus ATC (RADAR)
Tue 07:15:42 PM -36.8190 144.0000 319° Northwest 436 502 24,800 1,440 Climbing FlightAware ADS-B
Tue 07:16:30 PM -36.7385 143.9183 319° Northwest 440 506 26,400 1,714 Climbing Aus ATC (RADAR)
Tue 07:17:20 PM -36.6568 143.8379 322° Northwest 445 512 27,600 1,440 Climbing Aus ATC (RADAR)
Tue 07:17:45 PM -36.6152 143.7977 322° Northwest 448 516 28,200 1,327 Climbing Aus ATC (RADAR)
Tue 07:19:04 PM -36.4816 143.6670 322° Northwest 457 526 29,900 1,385 Climbing Aus ATC (RADAR)
Tue 07:19:29 PM -36.4397 143.6262 322° Northwest 456 525 30,600 1,672 Climbing Aus ATC (RADAR)
Tue 07:20:05 PM -36.3815 143.5694 322° Northwest 451 519 31,600 1,235 Climbing Aus ATC (RADAR)
Tue 07:20:37 PM -36.3330 143.5230 322° Northwest 453 521 32,000 1,083 Climbing FlightAware ADS-B
Tue 07:21:17 PM -36.2700 143.4620 322° Northwest 452 520 32,900 1,200 Climbing FlightAware ADS-B
Tue 07:22:02 PM -36.1910 143.3850 322° Northwest 452 520 33,700 1,417 Climbing FlightAware ADS-B
Tue 07:22:29 PM -36.1417 143.3396 322° Northwest 447 514 34,600 1,050 Climbing Aus ATC (RADAR)
Tue 07:22:42 PM -36.1260 143.3220 322° Northwest 453 521 34,400 1,000 Descending FlightAware ADS-B
Tue 07:23:05 PM -36.0838 143.2842 322° Northwest 449 517 35,200 933 Climbing Aus ATC (RADAR)
Tue 07:23:27 PM -36.0520 143.2510 322° Northwest 453 521 35,100 484 Descending FlightAware ADS-B
Tue 07:24:07 PM -35.9860 143.1890 323° Northwest 453 521 35,700 1,164 Climbing FlightAware ADS-B
Tue 07:24:34 PM -35.9349 143.1409 323° Northwest 450 518 36,400 450 Climbing Aus ATC (RADAR)
Tue 07:24:47 PM -35.9210 143.1260 323° Northwest 456 525 36,000 -414 Descending FlightAware ADS-B
Tue 07:25:32 PM -35.8440 143.0530 322° Northwest 456 525 36,000  Level FlightAware ADS-B
Tue 07:26:12 PM -35.7770 142.9880 322° Northwest 456 525 36,000  Level FlightAware ADS-B
Tue 07:26:57 PM -35.7000 142.9160 323° Northwest 454 522 36,000 333 Level FlightAware ADS-B
Tue 07:27:24 PM -35.6518 142.8716 323° Northwest 453 521 36,400  Climbing Aus ATC (RADAR)
Tue 07:27:37 PM -35.6330 142.8520 323° Northwest 454 522 36,000  Descending FlightAware ADS-B
Tue 07:28:09 PM -35.5776 142.8007 323° Northwest 451 519 36,400  Climbing Aus ATC (RADAR)
Tue 07:28:17 PM -35.5690 142.7910 323° Northwest 452 520 36,000 -453 Descending FlightAware ADS-B
Tue 07:29:02 PM -35.4920 142.7190 323° Northwest 452 520 36,000 312 Level FlightAware ADS-B
Tue 07:29:34 PM -35.4364 142.6678 323° Northwest 449 517 36,400  Climbing Aus ATC (RADAR)
Tue 07:29:42 PM -35.4260 142.6560 323° Northwest 452 520 36,000  Descending FlightAware ADS-B
Tue 07:30:04 PM -35.3870 142.6203 323° Northwest 449 517 36,400  Climbing Aus ATC (RADAR)
Tue 07:30:22 PM -35.3590 142.5940 323° Northwest 452 520 36,000 -176 Descending FlightAware ADS-B
Tue 07:30:38 PM -35.3288 142.5657 323° Northwest 451 519 36,300  Climbing Aus ATC (RADAR)
Tue 07:30:57 PM -35.3010 142.5390 323° Northwest 454 522 36,000  Descending FlightAware ADS-B
Tue 07:31:23 PM -35.2541 142.4956 323° Northwest 451 519 36,300  Climbing Aus ATC (RADAR)
Tue 07:31:47 PM -35.2230 142.4660 323° Northwest 449 517 36,000  Descending FlightAware ADS-B
Tue 07:32:03 PM -35.1870 142.4336 323° Northwest 452 520 36,300  Climbing Aus ATC (RADAR)
Tue 07:32:32 PM -35.1470 142.3950 323° Northwest 450 518 36,000  Descending FlightAware ADS-B
Tue 07:32:48 PM -35.1117 142.3633 323° Northwest 452 520 36,300  Climbing Aus ATC (RADAR)
Tue 07:33:12 PM -35.0780 142.3310 323° Northwest 449 517 36,000 -261 Descending FlightAware ADS-B
Tue 07:33:57 PM -35.0050 142.2630 323° Northwest 449 517 36,000 237 Level FlightAware ADS-B
Tue 07:34:28 PM -34.9443 142.2074 323° Northwest 454 522 36,300  Climbing Aus ATC (RADAR)
Tue 07:34:37 PM -34.9360 142.1990 323° Northwest 450 518 36,000  Descending FlightAware ADS-B
Tue 07:34:53 PM -34.9021 142.1688 323° Northwest 454 522 36,300  Climbing Aus ATC (RADAR)
Tue 07:35:17 PM -34.8690 142.1370 323° Northwest 451 519 36,000 -261 Descending FlightAware ADS-B
Tue 07:36:02 PM -34.7960 142.0700 323° Northwest 451 519 36,000 295 Level FlightAware ADS-B
Tue 07:36:18 PM -34.7591 142.0366 323° Northwest 456 525 36,300  Climbing Aus ATC (RADAR)
Tue 07:36:42 PM -34.7260 142.0050 323° Northwest 451 519 36,000 -281 Descending FlightAware ADS-B
Tue 07:37:22 PM -34.6590 141.9440 323° Northwest 452 520 36,000 321 Level FlightAware ADS-B
Tue 07:37:38 PM -34.6241 141.9124 323° Northwest 458 527 36,300 429 Climbing Aus ATC (RADAR)
Tue 07:38:04 PM -34.5817 141.8734 323° Northwest 458 527 36,300  Level Aus ATC (RADAR)
Tue 07:39:38 PM -34.4208 141.7262 323° Northwest 458 527 36,300 -175 Level Aus ATC (RADAR)
Tue 07:39:47 PM -34.4120 141.7170 323° Northwest 461 531 36,000  Descending FlightAware ADS-B
Tue 07:40:13 PM -34.3608 141.6723 323° Northwest 459 528 36,300  Climbing Aus ATC (RADAR)
Tue 07:40:27 PM -34.3520 141.6610 323° Northwest 461 531 36,000 -333 Descending FlightAware ADS-B
Tue 07:41:07 PM -34.2950 141.6070 323° Northwest 461 531 36,000 439 Level FlightAware ADS-B
Tue 07:41:08 PM -34.2674 141.5868 323° Northwest 459 528 36,300  Climbing Aus ATC (RADAR)
Tue 07:41:47 PM -34.2370 141.5530 322° Northwest 461 531 36,000  Descending FlightAware ADS-B
Tue 07:42:03 PM -34.1735 141.5016 322° Northwest 460 529 36,300  Climbing Aus ATC (RADAR)
Tue 07:42:27 PM -34.1800 141.4990 322° Northwest 461 531 36,000 -281 Descending FlightAware ADS-B
Tue 07:43:07 PM -34.1230 141.4450 322° Northwest 461 531 36,000 295 Level FlightAware ADS-B
Tue 07:43:28 PM -34.0265 141.3695 322° Northwest 469 540 36,300  Climbing Aus ATC (RADAR)
Tue 07:43:57 PM -34.0520 141.3770 322° Northwest 461 531 36,000  Descending FlightAware ADS-B
Tue 07:44:18 PM -33.9422 141.2938 322° Northwest 459 528 36,300  Climbing Aus ATC (RADAR)
Tue 07:44:37 PM -33.9950 141.3240 322° Northwest 461 531 36,000  Descending FlightAware ADS-B
Tue 07:45:03 PM -33.8660 141.2251 322° Northwest 458 527 36,300  Climbing Aus ATC (RADAR)
Tue 07:45:17 PM -33.9370 141.2700 322° Northwest 461 531 36,000  Descending FlightAware ADS-B
Tue 07:45:38 PM -33.8072 141.1721 322° Northwest 455 524 36,300  Climbing Aus ATC (RADAR)
Tue 07:45:57 PM -33.8800 141.2160 322° Northwest 461 531 36,000  Descending FlightAware ADS-B
Tue 07:46:28 PM -33.7232 141.0969 322° Northwest 453 521 36,300  Climbing Aus ATC (RADAR)
Tue 07:46:37 PM -33.8230 141.1620 322° Northwest 461 531 36,000  Descending FlightAware ADS-B
Tue 07:46:53 PM -33.6807 141.0595 322° Northwest 453 521 36,300  Climbing Aus ATC (RADAR)
Tue 07:47:27 PM -33.7520 141.0950 322° Northwest 461 531 36,000 -243 Descending FlightAware ADS-B
Tue 07:48:07 PM -33.6950 141.0410 322° Northwest 461 531 36,000  Level FlightAware ADS-B
Tue 07:48:47 PM -33.6370 140.9880 323° Northwest 461 531 36,000  Level FlightAware ADS-B
Tue 07:49:27 PM -33.5800 140.9340 322° Northwest 461 531 36,000 225 Level FlightAware ADS-B
Tue 07:50:07 PM -33.3508 140.7673 322° Northwest 457 526 36,300 277 Climbing Aus ATC (RADAR)
Tue 07:50:32 PM -33.3083 140.7300 324° Northwest 455 524 36,300  Level Aus ATC (RADAR)
Tue 07:51:12 PM -33.2414 140.6708 324° Northwest 450 518 36,300  Level Aus ATC (RADAR)
Tue 07:51:47 PM -33.1823 140.6187 324° Northwest 451 519 36,300  Level Aus ATC (RADAR)
Tue 07:52:07 PM -33.1610 140.6000 324° Northwest 36,000  Descending FlightAware ADS-B
Tue 07:52:22 PM -33.1227 140.5661 324° Northwest 454 522 36,300  Climbing Aus ATC (RADAR)
Tue 07:52:47 PM -33.0870 140.5350 324° Northwest 447 514 36,000  Descending FlightAware ADS-B
Tue 07:53:07 PM -33.0475 140.5002 324° Northwest 449 517 36,300  Climbing Aus ATC (RADAR)
Tue 07:53:32 PM -33.0100 140.4670 324° Northwest 447 514 36,000 -277 Descending FlightAware ADS-B
Tue 07:54:12 PM -32.9430 140.4080 324° Northwest 446 513 36,000 225 Level FlightAware ADS-B
Tue 07:54:52 PM -32.8694 140.3448 324° Northwest 454 522 36,300  Climbing Aus ATC (RADAR)
Tue 07:54:52 PM -32.8770 140.3510 324° Northwest 446 513 36,000  Descending FlightAware ADS-B
Tue 07:55:07 PM -32.8444 140.3230 324° Northwest 454 522 36,300  Climbing Aus ATC (RADAR)
Tue 07:55:37 PM -32.8090 140.2910 324° Northwest 446 513 36,000  Descending FlightAware ADS-B
Tue 07:56:32 PM -32.7010 140.1988 324° Northwest 454 522 36,300  Climbing Aus ATC (RADAR)
Tue 07:56:47 PM -32.6850 140.1850 324° Northwest 445 512 36,000  Descending FlightAware ADS-B
Tue 07:57:07 PM -32.6419 140.1480 324° Northwest 453 521 36,300  Climbing Aus ATC (RADAR)
Tue 07:57:22 PM -32.6330 140.1380 324° Northwest 444 511 36,000  Descending FlightAware ADS-B
Tue 07:57:52 PM -32.5666 140.0830 324° Northwest 449 517 36,300  Climbing Aus ATC (RADAR)
Tue 07:58:12 PM -32.5420 140.0620 324° Northwest 445 512 36,000 -300 Descending FlightAware ADS-B
Tue 07:58:52 PM -32.4700 140.0000 324° Northwest 445 512 36,000  Level FlightAware ADS-B
Tue 07:59:32 PM -32.4020 139.9410 324° Northwest 444 511 36,000 277 Level FlightAware ADS-B
Tue 07:59:57 PM -32.3551 139.9013 324° Northwest 452 520 36,300  Climbing Aus ATC (RADAR)
Tue 08:00:17 PM -32.3260 139.8750 324° Northwest 444 511 36,000 -300 Descending FlightAware ADS-B
Tue 08:00:57 PM -32.2580 139.8180 325° Northwest 444 511 36,000  Level FlightAware ADS-B
Tue 08:01:37 PM -32.1910 139.7600 324° Northwest 444 511 36,000 214 Level FlightAware ADS-B
Tue 08:02:21 PM -32.1108 139.6929 324° Northwest 450 518 36,300  Climbing Aus ATC (RADAR)
Tue 08:02:22 PM -32.1160 139.6970 324° Northwest 443 510 36,000 -391 Descending FlightAware ADS-B
Tue 08:03:07 PM -32.0460 139.6350 323° Northwest 443 510 36,000 240 Level FlightAware ADS-B
Tue 08:03:37 PM -31.9843 139.5858 323° Northwest 451 519 36,300  Climbing Aus ATC (RADAR)
Tue 08:03:47 PM -31.9910 139.5860 323° Northwest 443 510 36,000 -360 Descending FlightAware ADS-B
Tue 08:04:27 PM -31.9350 139.5360 323° Northwest 443 510 36,000 281 Level FlightAware ADS-B
Tue 08:04:51 PM -31.8577 139.4777 323° Northwest 453 521 36,300  Climbing Aus ATC (RADAR)
Tue 08:05:07 PM -31.8800 139.4870 323° Northwest 443 510 36,000 -273 Descending FlightAware ADS-B
Tue 08:05:57 PM -31.8100 139.4250 323° Northwest 443 510 36,000  Level FlightAware ADS-B
Tue 08:06:37 PM -31.7540 139.3760 323° Northwest 443 510 36,000  Level FlightAware ADS-B
Tue 08:07:17 PM -31.6990 139.3270 323° Northwest 443 510 36,000  Level FlightAware ADS-B
Tue 08:07:57 PM -31.6430 139.2770 323° Northwest 443 510 36,000 243 Level FlightAware ADS-B
Tue 08:08:31 PM -31.4853 139.1637 323° Northwest 451 519 36,300  Climbing Aus ATC (RADAR)
Tue 08:08:37 PM -31.5870 139.2280 323° Northwest 443 510 36,000 -321 Descending FlightAware ADS-B
Tue 08:09:27 PM -31.5180 139.1670 323° Northwest 443 510 36,000 202 Level FlightAware ADS-B
Tue 08:10:06 PM -31.3251 139.0304 323° Northwest 447 514 36,300  Climbing Aus ATC (RADAR)
Tue 08:10:17 PM -31.4480 139.1050 323° Northwest 443 510 36,000 -321 Descending FlightAware ADS-B
Tue 08:11:02 PM -31.3860 139.0500 323° Northwest 443 510 36,000  Level FlightAware ADS-B
Tue 08:11:42 PM -31.3300 139.0010 323° Northwest 443 510 36,000  Level FlightAware ADS-B
Tue 08:12:22 PM -31.2740 138.9520 323° Northwest 443 510 36,000 191 Level FlightAware ADS-B
Tue 08:13:16 PM -31.0077 138.7672 323° Northwest 439 505 36,300 243 Climbing Aus ATC (RADAR)
Tue 08:13:36 PM -30.9742 138.7365 322° Northwest 445 512 36,300  Level Aus ATC (RADAR)
Tue 08:14:46 PM -30.8567 138.6457 326° Northwest 440 506 36,300  Level Aus ATC (RADAR)
Tue 08:15:16 PM -30.8064 138.6079 327° Northwest 438 504 36,300 -8 Level Aus ATC (RADAR)
Tue 08:20:23 PM -30.2298 138.1856 328° Northwest 36,000 -8 Descending Aus ATC (Calculated)
Tue 08:22:00 PM -30.0646 138.0677 328° Northwest  Level Estimated
Tue 08:22:19 PM -30.0421 138.0496 328° Northwest 36,000  Level Aus ATC (Calculated)
Tue 08:24:00 PM -29.8699 137.9274 328° Northwest  Level Estimated
Tue 08:25:00 PM -29.7676 137.8549 328° Northwest  Level Estimated
Tue 08:25:01 PM -29.7583 137.8452 328° Northwest 36,000  Level Aus ATC (Calculated)
Tue 08:27:00 PM -29.5551 137.7021 328° Northwest  Level Estimated
Tue 08:27:19 PM -29.5186 137.6736 328° Northwest 36,000  Level Aus ATC (Calculated)
Tue 08:29:00 PM -29.3460 137.5528 329° Northwest  Level Estimated
Tue 08:30:00 PM -29.2434 137.4812 329° Northwest  Level Estimated
Tue 08:30:34 PM -29.1946 137.4433 329° Northwest 36,000  Level Aus ATC (Calculated)
Tue 08:32:00 PM -29.0474 137.3411 329° Northwest  Level Estimated
Tue 08:32:19 PM -29.0122 137.3144 329° Northwest 36,000  Level Aus ATC (Calculated)
Tue 08:33:08 PM -28.9133 137.2448 329° Northwest 36,000  Level Aus ATC (Calculated)
Tue 08:34:58 PM -28.6969 137.0928 329° Northwest 36,000  Level Aus ATC (Calculated)
Tue 08:35:00 PM -28.7214 137.1125 329° Northwest  Level Estimated
Tue 08:36:00 PM -28.5906 137.0199 329° Northwest  Level Estimated
Tue 08:37:00 PM -28.4876 136.9495 329° Northwest  Level Estimated
Tue 08:37:06 PM -28.4587 136.9264 329° Northwest 36,000  Level Aus ATC (Calculated)
Tue 08:39:00 PM -28.2629 136.7932 329° Northwest  Level Estimated
Tue 08:39:54 PM -28.1243 136.6955 329° Northwest 36,000  Level Aus ATC (Calculated)
Tue 08:40:00 PM -28.1598 136.7233 329° Northwest  Level Estimated
Tue 08:41:00 PM -28.0109 136.6189 329° Northwest  Level Estimated
Tue 08:42:00 PM -27.9076 136.5493 329° Northwest  Level Estimated
Tue 08:43:00 PM -27.8044 136.4799 329° Northwest  Level Estimated
Tue 08:44:00 PM -27.7011 136.4107 329° Northwest  Level Estimated
Tue 08:44:54 PM -27.5966 136.3384 329° Northwest 36,000  Level Aus ATC (Calculated)
Tue 08:45:00 PM -27.5978 136.3415 329° Northwest  Level Estimated
Tue 08:46:00 PM -27.4944 136.2725 329° Northwest  Level Estimated
Tue 08:47:00 PM -27.3794 136.1937 329° Northwest  Level Estimated
Tue 08:48:00 PM -27.2760 136.1251 329° Northwest  Level Estimated
Tue 08:49:00 PM -27.1725 136.0565 329° Northwest  Level Estimated
Tue 08:49:53 PM -27.1159 136.0167 329° Northwest 36,000  Level Aus ATC (Calculated)
Tue 08:50:00 PM -27.0690 135.9881 330° Northwest  Level Estimated
Tue 08:51:00 PM -27.0003 135.9404 330° Northwest  Level Estimated
Tue 08:52:00 PM -26.8967 135.8723 330° Northwest  Level Estimated
Tue 08:52:06 PM -26.8753 135.8569 329° Northwest 36,000  Level Aus ATC (Calculated)
Tue 08:52:38 PM -26.8272 135.8250 329° Northwest 36,000  Level Aus ATC (Calculated)
Tue 08:52:57 PM -26.8110 135.8140 330° Northwest 453 521 36,000  Level FlightAware ADS-B
Tue 08:53:09 PM -26.7790 135.7931 330° Northwest 36,000  Level Aus ATC (Calculated)
Tue 08:53:42 PM -26.7300 135.7610 330° Northwest 456 525 36,000  Level FlightAware ADS-B
Tue 08:54:08 PM -26.6827 135.7295 330° Northwest 28,100  Descending Aus ATC (Calculated)
Tue 08:54:08 PM -26.6827 135.7295 330° Northwest 28,100 24,947 Level Aus ATC (Calculated)
Tue 08:54:27 PM -26.6480 135.7070 330° Northwest 459 528 36,000 8,778 Climbing FlightAware ADS-B
Tue 08:55:02 PM -26.5800 135.6620 330° Northwest 460 529 36,000  Level FlightAware ADS-B
Tue 08:55:47 PM -26.5010 135.6100 330° Northwest 461 531 36,000  Level FlightAware ADS-B
Tue 08:56:32 PM -26.4160 135.5540 329° Northwest 463 533 36,000  Level FlightAware ADS-B
Tue 08:56:57 PM -26.3590 135.5166 330° Northwest 28,100  Descending Aus ATC (Calculated)
Tue 08:57:12 PM -26.3410 135.5050 329° Northwest 463 533 36,000 7,900 Climbing FlightAware ADS-B
Tue 08:57:57 PM -26.2640 135.4540 329° Northwest 463 533 36,000  Level FlightAware ADS-B
Tue 08:58:37 PM -26.1860 135.4030 330° Northwest 464 534 36,000  Level FlightAware ADS-B
Tue 08:59:01 PM -26.1431 135.3754 329° Northwest 28,100  Descending Aus ATC (Calculated)
Tue 08:59:22 PM -26.1000 135.3470 330° Northwest 464 534 36,000 7,770 Climbing FlightAware ADS-B
Tue 09:00:02 PM -26.0250 135.2980 330° Northwest 463 533 36,000  Level FlightAware ADS-B
Tue 09:00:42 PM -25.9550 135.2530 330° Northwest 462 532 36,000  Level FlightAware ADS-B
Tue 09:01:22 PM -25.8810 135.2040 329° Northwest 461 531 36,000  Level FlightAware ADS-B
Tue 09:01:49 PM -25.8188 135.1644 329° Northwest 28,100  Descending Aus ATC (Calculated)
Tue 09:02:07 PM -25.8020 135.1530 330° Northwest 458 527 36,000 8,172 Climbing FlightAware ADS-B
Tue 09:02:47 PM -25.7260 135.1040 330° Northwest 457 526 36,000  Level FlightAware ADS-B
Tue 09:03:32 PM -25.6450 135.0520 330° Northwest 455 524 36,000  Level FlightAware ADS-B
Tue 09:03:52 PM -25.6025 135.0245 329° Northwest 28,100  Descending Aus ATC (Calculated)
Tue 09:04:12 PM -25.5700 135.0030 330° Northwest 454 522 36,000 7,292 Climbing FlightAware ADS-B
Tue 09:04:57 PM -25.4910 134.9470 327° Northwest 449 517 36,000  Level FlightAware ADS-B
Tue 09:05:37 PM -25.4250 134.8970 326° Northwest 448 516 36,000 -212 Level FlightAware ADS-B
Tue 09:05:41 PM -25.4402 134.9198 323° Northwest 28,100 -400 Descending Aus ATC (Calculated)
Tue 09:06:22 PM -25.3420 134.8370 327° Northwest 426 490 35,700 5,763 Climbing FlightAware ADS-B
Tue 09:06:50 PM -25.2778 134.8154 224° Southwest 28,100 -514 Descending Aus ATC (Calculated)
Tue 09:06:57 PM -25.2920 134.8000 327° Northwest 424 488 35,400 4,731 Climbing FlightAware ADS-B
Tue 09:07:41 PM -25.2236 134.7807 290° West 28,100 -4,267 Descending Aus ATC (Calculated)
Tue 09:07:42 PM -25.2100 134.7400 326° Northwest 435 501 32,200 3,366 Climbing FlightAware ADS-B
Tue 09:08:22 PM -25.1440 134.6910 326° Northwest 441 507 30,400 -2,541 Descending FlightAware ADS-B
Tue 09:09:07 PM -25.0660 134.6350 327° Northwest 435 501 28,600 -2,267 Descending FlightAware ADS-B
Tue 09:09:50 PM -24.9527 134.6075 210° Southwest 28,100 -2,133 Descending Aus ATC (Calculated)
Tue 09:09:52 PM -24.9930 134.5820 327° Northwest 425 489 27,000 -3,714 Descending FlightAware ADS-B
Tue 09:10:32 PM -24.9260 134.5340 327° Northwest 418 481 25,500 -2,188 Descending FlightAware ADS-B
Tue 09:11:17 PM -24.8550 134.4820 326° Northwest 410 472 23,900 -2,118 Descending FlightAware ADS-B
Tue 09:11:41 PM -24.8079 134.5156 282° West 2,400 -2,100 Descending Aus ATC (Calculated)
Tue 09:11:57 PM -24.7930 134.4370 326° Northwest 403 464 22,500 24,913 Climbing FlightAware ADS-B
Tue 09:12:23 PM -24.7355 134.4697 260° West 2,400 -2,000 Descending Aus ATC (Calculated)
Tue 09:12:27 PM -24.7460 134.4030 327° Northwest 396 456 21,500 21,551 Climbing FlightAware ADS-B
Tue 09:12:50 PM -24.7355 134.4697 298° West 2,400 -2,000 Descending Aus ATC (Calculated)
Tue 09:13:12 PM -24.6790 134.3550 327° Northwest 388 447 20,000 15,774 Climbing FlightAware ADS-B
Tue 09:13:52 PM -24.6170 134.3090 327° Northwest 380 437 18,700 -1,950 Descending FlightAware ADS-B
Tue 09:14:32 PM -24.5610 134.2690 327° Northwest 371 427 17,400 -1,906 Descending FlightAware ADS-B
Tue 09:14:59 PM -24.5181 134.3325 283° West 2,400 -1,867 Descending Aus ATC (Calculated)
Tue 09:15:17 PM -24.4950 134.2220 327° Northwest 363 418 16,000 14,151 Climbing FlightAware ADS-B
Tue 09:15:52 PM -24.4460 134.1870 327° Northwest 356 410 14,900 -988 Descending FlightAware ADS-B
Tue 09:16:24 PM -24.3732 134.2412 261° West 2,400 -360 Descending Aus ATC (Calculated)
Tue 09:16:42 PM -24.3870 134.1440 326° Northwest 306 352 14,600 12,000 Climbing FlightAware ADS-B
Tue 09:17:22 PM -24.3380 134.1080 326° Northwest 287 330 14,000 -918 Descending FlightAware ADS-B
Tue 09:17:54 PM -24.2281 134.1501 230° Southwest 2,400 -933 Descending Aus ATC (Calculated)
Tue 09:18:07 PM -24.2880 134.0730 327° Northwest 277 319 13,300 11,547 Climbing FlightAware ADS-B
Tue 09:18:47 PM -24.2460 134.0430 327° Northwest 266 306 12,600 -1,200 Descending FlightAware ADS-B
Tue 09:19:27 PM -24.2080 134.0160 327° Northwest 265 305 11,700 -1,482 Descending FlightAware ADS-B
Tue 09:20:12 PM -24.1600 133.9810 326° Northwest 265 305 10,500 -1,662 Descending FlightAware ADS-B
Tue 09:20:32 PM -24.1380 133.9660 328° Northwest 263 303 9,900 -1,418 Descending FlightAware ADS-B
Tue 09:21:07 PM -24.1050 133.9420 326° Northwest 258 297 9,200 -1,292 Descending FlightAware ADS-B
Tue 09:21:37 PM -24.0750 133.9200 326° Northwest 261 300 8,500 -1,527 Descending FlightAware ADS-B
Tue 09:21:59 PM -23.8653 133.9234 186° South 2,400 -1,680 Descending Aus ATC (Calculated)
Tue 09:22:02 PM -24.0500 133.9030 328° Northwest 259 298 7,800 8,364 Climbing FlightAware ADS-B
Tue 09:22:32 PM -24.0130 133.8870 328° Northwest 252 290 7,000 -1,418 Descending FlightAware ADS-B
Tue 09:22:57 PM -23.9870 133.8770 341° North 244 281 6,500 -1,091 Descending FlightAware ADS-B
Tue 09:23:27 PM -23.9550 133.8640 340° North 225 259 6,000 -900 Descending FlightAware ADS-B
Tue 09:23:57 PM -23.9270 133.8530 340° North 216 249 5,600 -900 Descending FlightAware ADS-B
Tue 09:24:07 PM -23.9190 133.8500 341° North 213 245 5,400 -1,050 Descending FlightAware ADS-B
Tue 09:24:37 PM -23.8910 133.8390 340° North 204 235 4,900 -1,091 Descending FlightAware ADS-B
Tue 09:25:02 PM -23.8680 133.8290 338° Northwest 199 229 4,400 -982 Descending FlightAware ADS-B
Tue 09:25:32 PM -23.8440 133.8200 341° North 195 224 4,000 -900 Descending FlightAware ADS-B
Tue 09:26:02 PM -23.8180 133.8110 342° North 178 205 3,500 -873 Descending FlightAware ADS-B
Tue 09:26:27 PM -23.8010 133.8140 North 159 183 3,200 -750 Descending FlightAware ADS-B
Tue 09:26:42 PM -23.7910 133.8210 33° Northeast 151 174 3,000 -1,000 Descending FlightAware ADS-B
Tue 09:26:57 PM -23.7850 133.8300 54° Northeast 148 170 2,700 -800 Descending FlightAware ADS-B
Tue 09:27:12 PM -23.7820 133.8400 72° East 151 174 2,600 -764 Descending FlightAware ADS-B
Tue 09:27:52 PM -23.7890 133.8710 104° East 154 177 2,000 -764 Descending FlightAware ADS-B
Tue 09:28:07 PM -23.7940 133.8790 124° Southeast 152 175 1,900 -750 Descending FlightAware ADS-B
Tue 09:28:32 PM -23.8020 133.8960 117° Southeast 155 178 1,500 -960 Descending FlightAware ADS-B

Login

Don't have an account? Register now (free) for customized features, flight alerts, and more!